sensor_id;sensor_type;location;lat;lon;timestamp;temperature;humidity
30097;DHT22;16915;51.466;3.610;2023-03-01T00:01:27;-0.10;99.90
30097;DHT22;16915;51.466;3.610;2023-03-01T00:03:53;-0.10;99.90
30097;DHT22;16915;51.466;3.610;2023-03-01T00:06:20;-0.10;99.90
30097;DHT22;16915;51.466;3.610;2023-03-01T00:08:46;-0.10;99.90
30097;DHT22;16915;51.466;3.610;2023-03-01T00:11:20;-0.10;99.90
30097;DHT22;16915;51.466;3.610;2023-03-01T00:13:48;-0.10;99.90
30097;DHT22;16915;51.466;3.610;2023-03-01T00:16:23;-0.10;99.90
30097;DHT22;16915;51.466;3.610;2023-03-01T00:18:48;0.00;99.90
30097;DHT22;16915;51.466;3.610;2023-03-01T00:21:15;-0.10;99.90
30097;DHT22;16915;51.466;3.610;2023-03-01T00:23:41;-0.10;99.90
30097;DHT22;16915;51.466;3.610;2023-03-01T00:26:09;-0.10;99.90
30097;DHT22;16915;51.466;3.610;2023-03-01T00:28:35;-0.10;99.90
30097;DHT22;16915;51.466;3.610;2023-03-01T00:31:10;-0.10;99.90
30097;DHT22;16915;51.466;3.610;2023-03-01T00:33:35;-0.20;99.90
30097;DHT22;16915;51.466;3.610;2023-03-01T00:36:02;-0.30;99.90
30097;DHT22;16915;51.466;3.610;2023-03-01T00:38:28;-0.40;99.90
30097;DHT22;16915;51.466;3.610;2023-03-01T00:40:54;-0.50;99.90
30097;DHT22;16915;51.466;3.610;2023-03-01T00:43:20;-0.50;99.90
30097;DHT22;16915;51.466;3.610;2023-03-01T00:45:45;-0.60;99.90
30097;DHT22;16915;51.466;3.610;2023-03-01T00:48:11;-0.60;99.90
30097;DHT22;16915;51.466;3.610;2023-03-01T00:50:36;-0.60;99.90
30097;DHT22;16915;51.466;3.610;2023-03-01T00:53:02;-0.70;99.90
30097;DHT22;16915;51.466;3.610;2023-03-01T00:55:28;-0.70;99.90
30097;DHT22;16915;51.466;3.610;2023-03-01T00:57:53;-0.70;99.90
30097;DHT22;16915;51.466;3.610;2023-03-01T01:00:20;-0.80;99.90
30097;DHT22;16915;51.466;3.610;2023-03-01T01:02:46;-0.80;99.90
30097;DHT22;16915;51.466;3.610;2023-03-01T01:05:12;-0.70;99.90
30097;DHT22;16915;51.466;3.610;2023-03-01T01:07:38;-0.80;99.90
30097;DHT22;16915;51.466;3.610;2023-03-01T01:10:03;-0.80;99.90
30097;DHT22;16915;51.466;3.610;2023-03-01T01:12:29;-0.80;99.90
30097;DHT22;16915;51.466;3.610;2023-03-01T01:14:55;-0.80;99.90
30097;DHT22;16915;51.466;3.610;2023-03-01T01:17:20;-0.80;99.90
30097;DHT22;16915;51.466;3.610;2023-03-01T01:19:46;-0.60;99.90
30097;DHT22;16915;51.466;3.610;2023-03-01T01:22:11;-0.50;99.90
30097;DHT22;16915;51.466;3.610;2023-03-01T01:24:37;-0.50;99.90
30097;DHT22;16915;51.466;3.610;2023-03-01T01:27:03;-0.40;99.90
30097;DHT22;16915;51.466;3.610;2023-03-01T01:29:28;-0.40;99.90
30097;DHT22;16915;51.466;3.610;2023-03-01T01:31:54;-0.40;99.90
30097;DHT22;16915;51.466;3.610;2023-03-01T01:34:21;-0.40;99.90
30097;DHT22;16915;51.466;3.610;2023-03-01T01:36:51;-0.30;99.90
30097;DHT22;16915;51.466;3.610;2023-03-01T01:39:19;-0.40;99.90
30097;DHT22;16915;51.466;3.610;2023-03-01T01:41:45;-0.40;99.90
30097;DHT22;16915;51.466;3.610;2023-03-01T01:44:15;-0.40;99.90
30097;DHT22;16915;51.466;3.610;2023-03-01T01:46:57;-0.40;99.90
30097;DHT22;16915;51.466;3.610;2023-03-01T01:49:46;-0.50;99.90
30097;DHT22;16915;51.466;3.610;2023-03-01T01:52:31;-0.50;99.90
30097;DHT22;16915;51.466;3.610;2023-03-01T01:55:08;-0.60;99.90
30097;DHT22;16915;51.466;3.610;2023-03-01T01:57:43;-0.60;99.90
30097;DHT22;16915;51.466;3.610;2023-03-01T02:00:23;-0.70;99.90
30097;DHT22;16915;51.466;3.610;2023-03-01T02:02:54;-0.70;99.90
30097;DHT22;16915;51.466;3.610;2023-03-01T02:05:47;-0.70;99.90
30097;DHT22;16915;51.466;3.610;2023-03-01T02:08:17;-0.80;99.90
30097;DHT22;16915;51.466;3.610;2023-03-01T02:10:44;-0.90;99.90
30097;DHT22;16915;51.466;3.610;2023-03-01T02:13:10;-0.90;99.90
30097;DHT22;16915;51.466;3.610;2023-03-01T02:15:38;-1.00;99.90
30097;DHT22;16915;51.466;3.610;2023-03-01T02:18:05;-1.00;99.90
30097;DHT22;16915;51.466;3.610;2023-03-01T02:20:44;-1.00;99.90
30097;DHT22;16915;51.466;3.610;2023-03-01T02:23:14;-1.10;99.90
30097;DHT22;16915;51.466;3.610;2023-03-01T02:30:41;-1.10;99.90
30097;DHT22;16915;51.466;3.610;2023-03-01T02:33:27;-1.10;99.90
30097;DHT22;16915;51.466;3.610;2023-03-01T02:35:54;-1.10;99.90
30097;DHT22;16915;51.466;3.610;2023-03-01T02:38:21;-1.10;99.90
30097;DHT22;16915;51.466;3.610;2023-03-01T02:40:49;-1.10;99.90
30097;DHT22;16915;51.466;3.610;2023-03-01T02:43:16;-1.10;99.90
30097;DHT22;16915;51.466;3.610;2023-03-01T02:45:52;-1.10;99.90
30097;DHT22;16915;51.466;3.610;2023-03-01T02:48:19;-1.20;99.90
30097;DHT22;16915;51.466;3.610;2023-03-01T02:53:39;-1.20;99.90
30097;DHT22;16915;51.466;3.610;2023-03-01T02:56:08;-1.20;99.90
30097;DHT22;16915;51.466;3.610;2023-03-01T02:58:39;-1.20;99.90
30097;DHT22;16915;51.466;3.610;2023-03-01T03:01:11;-1.30;99.90
30097;DHT22;16915;51.466;3.610;2023-03-01T03:03:38;-1.30;99.90
30097;DHT22;16915;51.466;3.610;2023-03-01T03:06:04;-1.20;99.90
30097;DHT22;16915;51.466;3.610;2023-03-01T03:08:30;-1.20;99.90
30097;DHT22;16915;51.466;3.610;2023-03-01T03:10:55;-1.10;99.90
30097;DHT22;16915;51.466;3.610;2023-03-01T03:13:21;-1.00;99.90
30097;DHT22;16915;51.466;3.610;2023-03-01T03:15:47;-0.90;99.90
30097;DHT22;16915;51.466;3.610;2023-03-01T03:18:15;-1.00;99.90
30097;DHT22;16915;51.466;3.610;2023-03-01T03:20:42;-1.00;99.90
30097;DHT22;16915;51.466;3.610;2023-03-01T03:23:08;-1.00;99.90
30097;DHT22;16915;51.466;3.610;2023-03-01T03:25:34;-1.10;99.90
30097;DHT22;16915;51.466;3.610;2023-03-01T03:28:03;-1.10;99.90
30097;DHT22;16915;51.466;3.610;2023-03-01T03:30:36;-1.20;99.90
30097;DHT22;16915;51.466;3.610;2023-03-01T03:33:04;-1.20;99.90
30097;DHT22;16915;51.466;3.610;2023-03-01T03:35:34;-1.20;99.90
30097;DHT22;16915;51.466;3.610;2023-03-01T03:38:08;-1.20;99.90
30097;DHT22;16915;51.466;3.610;2023-03-01T03:40:42;-1.30;99.90
30097;DHT22;16915;51.466;3.610;2023-03-01T03:43:10;-1.30;99.90
30097;DHT22;16915;51.466;3.610;2023-03-01T03:45:37;-1.30;99.90
30097;DHT22;16915;51.466;3.610;2023-03-01T03:48:04;-1.40;99.90
30097;DHT22;16915;51.466;3.610;2023-03-01T03:50:30;-1.40;99.90
30097;DHT22;16915;51.466;3.610;2023-03-01T03:52:56;-1.30;99.90
30097;DHT22;16915;51.466;3.610;2023-03-01T03:55:21;-1.40;99.90
30097;DHT22;16915;51.466;3.610;2023-03-01T03:57:48;-1.40;99.90
30097;DHT22;16915;51.466;3.610;2023-03-01T04:00:19;-1.40;99.90
30097;DHT22;16915;51.466;3.610;2023-03-01T04:02:46;-1.40;99.90
30097;DHT22;16915;51.466;3.610;2023-03-01T04:05:14;-1.40;99.90
30097;DHT22;16915;51.466;3.610;2023-03-01T04:07:41;-1.40;99.90
30097;DHT22;16915;51.466;3.610;2023-03-01T04:10:11;-1.50;99.90
30097;DHT22;16915;51.466;3.610;2023-03-01T04:12:37;-1.50;99.90
30097;DHT22;16915;51.466;3.610;2023-03-01T04:15:04;-1.50;99.90
30097;DHT22;16915;51.466;3.610;2023-03-01T04:17:40;-1.40;99.90
30097;DHT22;16915;51.466;3.610;2023-03-01T04:20:08;-1.40;99.90
30097;DHT22;16915;51.466;3.610;2023-03-01T04:22:34;-1.50;99.90
30097;DHT22;16915;51.466;3.610;2023-03-01T04:25:00;-1.40;99.90
30097;DHT22;16915;51.466;3.610;2023-03-01T04:27:27;-1.40;99.90
30097;DHT22;16915;51.466;3.610;2023-03-01T04:29:52;-1.40;99.90
30097;DHT22;16915;51.466;3.610;2023-03-01T04:32:18;-1.40;99.90
30097;DHT22;16915;51.466;3.610;2023-03-01T04:34:44;-1.30;99.90
30097;DHT22;16915;51.466;3.610;2023-03-01T04:37:09;-1.30;99.90
30097;DHT22;16915;51.466;3.610;2023-03-01T04:39:35;-1.30;99.90
30097;DHT22;16915;51.466;3.610;2023-03-01T04:42:14;-1.30;99.90
30097;DHT22;16915;51.466;3.610;2023-03-01T04:44:39;-1.30;99.90
30097;DHT22;16915;51.466;3.610;2023-03-01T04:47:05;-1.40;99.90
30097;DHT22;16915;51.466;3.610;2023-03-01T04:49:31;-1.40;99.90
30097;DHT22;16915;51.466;3.610;2023-03-01T04:51:57;-1.40;99.90
30097;DHT22;16915;51.466;3.610;2023-03-01T04:54:28;-1.40;99.90
30097;DHT22;16915;51.466;3.610;2023-03-01T04:56:54;-1.40;99.90
30097;DHT22;16915;51.466;3.610;2023-03-01T04:59:20;-1.40;99.90
30097;DHT22;16915;51.466;3.610;2023-03-01T05:01:48;-1.30;99.90
30097;DHT22;16915;51.466;3.610;2023-03-01T05:04:14;-1.30;99.90
30097;DHT22;16915;51.466;3.610;2023-03-01T05:06:39;-1.30;99.90
30097;DHT22;16915;51.466;3.610;2023-03-01T05:09:05;-1.40;99.90
30097;DHT22;16915;51.466;3.610;2023-03-01T05:11:31;-1.50;99.90
30097;DHT22;16915;51.466;3.610;2023-03-01T05:14:01;-1.60;99.90
30097;DHT22;16915;51.466;3.610;2023-03-01T05:16:27;-1.70;99.90
30097;DHT22;16915;51.466;3.610;2023-03-01T05:18:52;-1.70;99.90
30097;DHT22;16915;51.466;3.610;2023-03-01T05:21:18;-1.70;99.90
30097;DHT22;16915;51.466;3.610;2023-03-01T05:23:44;-1.80;99.90
30097;DHT22;16915;51.466;3.610;2023-03-01T05:26:10;-1.80;99.90
30097;DHT22;16915;51.466;3.610;2023-03-01T05:28:38;-1.90;99.90
30097;DHT22;16915;51.466;3.610;2023-03-01T05:31:03;-1.90;99.90
30097;DHT22;16915;51.466;3.610;2023-03-01T05:33:36;-2.00;99.90
30097;DHT22;16915;51.466;3.610;2023-03-01T05:36:02;-2.10;99.90
30097;DHT22;16915;51.466;3.610;2023-03-01T05:38:28;-2.20;99.90
30097;DHT22;16915;51.466;3.610;2023-03-01T05:40:53;-2.30;99.90
30097;DHT22;16915;51.466;3.610;2023-03-01T05:43:19;-2.40;99.90
30097;DHT22;16915;51.466;3.610;2023-03-01T05:45:45;-2.40;99.90
30097;DHT22;16915;51.466;3.610;2023-03-01T05:48:11;-2.50;99.90
30097;DHT22;16915;51.466;3.610;2023-03-01T05:50:40;-2.50;99.90
30097;DHT22;16915;51.466;3.610;2023-03-01T05:53:19;-2.60;99.90
30097;DHT22;16915;51.466;3.610;2023-03-01T05:55:47;-2.60;99.90
30097;DHT22;16915;51.466;3.610;2023-03-01T05:58:18;-2.70;99.90
30097;DHT22;16915;51.466;3.610;2023-03-01T06:00:45;-2.70;99.90
30097;DHT22;16915;51.466;3.610;2023-03-01T06:03:12;-2.70;99.90
30097;DHT22;16915;51.466;3.610;2023-03-01T06:05:39;-2.80;99.90
30097;DHT22;16915;51.466;3.610;2023-03-01T06:08:05;-2.80;99.90
30097;DHT22;16915;51.466;3.610;2023-03-01T06:10:31;-2.80;99.90
30097;DHT22;16915;51.466;3.610;2023-03-01T06:12:57;-2.80;99.90
30097;DHT22;16915;51.466;3.610;2023-03-01T06:15:23;-2.90;99.90
30097;DHT22;16915;51.466;3.610;2023-03-01T06:17:49;-2.80;99.90
30097;DHT22;16915;51.466;3.610;2023-03-01T06:20:20;-2.80;99.90
30097;DHT22;16915;51.466;3.610;2023-03-01T06:22:46;-2.80;99.90
30097;DHT22;16915;51.466;3.610;2023-03-01T06:25:14;-2.80;99.90
30097;DHT22;16915;51.466;3.610;2023-03-01T06:27:41;-2.80;99.90
30097;DHT22;16915;51.466;3.610;2023-03-01T06:30:08;-2.90;99.90
30097;DHT22;16915;51.466;3.610;2023-03-01T06:32:35;-2.90;99.90
30097;DHT22;16915;51.466;3.610;2023-03-01T06:35:00;-2.90;99.90
30097;DHT22;16915;51.466;3.610;2023-03-01T06:37:26;-2.90;99.90
30097;DHT22;16915;51.466;3.610;2023-03-01T06:39:52;-2.90;99.90
30097;DHT22;16915;51.466;3.610;2023-03-01T06:42:17;-3.00;99.90
30097;DHT22;16915;51.466;3.610;2023-03-01T06:44:44;-2.90;99.90
30097;DHT22;16915;51.466;3.610;2023-03-01T06:47:09;-2.90;99.90
30097;DHT22;16915;51.466;3.610;2023-03-01T06:49:35;-3.00;99.90
30097;DHT22;16915;51.466;3.610;2023-03-01T06:52:01;-3.00;99.90
30097;DHT22;16915;51.466;3.610;2023-03-01T06:54:26;-3.00;99.90
30097;DHT22;16915;51.466;3.610;2023-03-01T06:56:52;-2.90;99.90
30097;DHT22;16915;51.466;3.610;2023-03-01T06:59:18;-2.90;99.90
30097;DHT22;16915;51.466;3.610;2023-03-01T07:01:43;-2.80;99.90
30097;DHT22;16915;51.466;3.610;2023-03-01T07:04:10;-2.80;99.90
30097;DHT22;16915;51.466;3.610;2023-03-01T07:06:35;-2.80;99.90
30097;DHT22;16915;51.466;3.610;2023-03-01T07:09:01;-2.80;99.90
30097;DHT22;16915;51.466;3.610;2023-03-01T07:11:27;-2.80;99.90
30097;DHT22;16915;51.466;3.610;2023-03-01T07:13:52;-2.70;99.90
30097;DHT22;16915;51.466;3.610;2023-03-01T07:16:18;-2.70;99.90
30097;DHT22;16915;51.466;3.610;2023-03-01T07:18:45;-2.60;99.90
30097;DHT22;16915;51.466;3.610;2023-03-01T07:21:12;-2.50;99.90
30097;DHT22;16915;51.466;3.610;2023-03-01T07:23:38;-2.40;99.90
30097;DHT22;16915;51.466;3.610;2023-03-01T07:26:04;-2.30;99.90
30097;DHT22;16915;51.466;3.610;2023-03-01T07:28:30;-2.30;99.90
30097;DHT22;16915;51.466;3.610;2023-03-01T07:31:01;-2.20;99.90
30097;DHT22;16915;51.466;3.610;2023-03-01T07:33:26;-2.20;99.90
30097;DHT22;16915;51.466;3.610;2023-03-01T07:35:59;-2.20;99.90
30097;DHT22;16915;51.466;3.610;2023-03-01T07:38:25;-2.10;99.90
30097;DHT22;16915;51.466;3.610;2023-03-01T07:40:51;-2.00;99.90
30097;DHT22;16915;51.466;3.610;2023-03-01T07:43:17;-1.90;99.90
30097;DHT22;16915;51.466;3.610;2023-03-01T07:45:42;-1.80;99.90
30097;DHT22;16915;51.466;3.610;2023-03-01T07:48:08;-1.70;99.90
30097;DHT22;16915;51.466;3.610;2023-03-01T07:50:33;-1.60;99.90
30097;DHT22;16915;51.466;3.610;2023-03-01T07:52:59;-1.50;99.90
30097;DHT22;16915;51.466;3.610;2023-03-01T07:55:24;-1.40;99.90
30097;DHT22;16915;51.466;3.610;2023-03-01T07:57:50;-1.30;99.90
30097;DHT22;16915;51.466;3.610;2023-03-01T08:00:16;-1.20;99.90
30097;DHT22;16915;51.466;3.610;2023-03-01T08:02:41;-1.00;99.90
30097;DHT22;16915;51.466;3.610;2023-03-01T08:05:08;-0.90;99.90
30097;DHT22;16915;51.466;3.610;2023-03-01T08:07:35;-0.60;99.90
30097;DHT22;16915;51.466;3.610;2023-03-01T08:10:00;-0.40;99.90
30097;DHT22;16915;51.466;3.610;2023-03-01T08:12:26;-0.20;99.90
30097;DHT22;16915;51.466;3.610;2023-03-01T08:14:53;0.00;99.90
30097;DHT22;16915;51.466;3.610;2023-03-01T08:17:19;0.20;99.90
30097;DHT22;16915;51.466;3.610;2023-03-01T08:19:44;0.40;99.90
30097;DHT22;16915;51.466;3.610;2023-03-01T08:22:10;0.60;99.90
30097;DHT22;16915;51.466;3.610;2023-03-01T08:24:36;0.70;99.90
30097;DHT22;16915;51.466;3.610;2023-03-01T08:27:01;0.90;99.90
30097;DHT22;16915;51.466;3.610;2023-03-01T08:29:30;1.00;99.90
30097;DHT22;16915;51.466;3.610;2023-03-01T08:31:55;1.20;99.90
30097;DHT22;16915;51.466;3.610;2023-03-01T08:34:21;1.30;99.90
30097;DHT22;16915;51.466;3.610;2023-03-01T08:36:47;1.40;99.90
30097;DHT22;16915;51.466;3.610;2023-03-01T08:39:15;1.60;99.90
30097;DHT22;16915;51.466;3.610;2023-03-01T08:41:41;1.70;99.90
30097;DHT22;16915;51.466;3.610;2023-03-01T08:44:09;1.80;99.90
30097;DHT22;16915;51.466;3.610;2023-03-01T08:46:38;1.90;99.90
30097;DHT22;16915;51.466;3.610;2023-03-01T08:49:05;2.10;99.90
30097;DHT22;16915;51.466;3.610;2023-03-01T08:51:30;2.10;99.90
30097;DHT22;16915;51.466;3.610;2023-03-01T08:53:57;2.20;99.90
30097;DHT22;16915;51.466;3.610;2023-03-01T08:56:23;2.40;99.90
30097;DHT22;16915;51.466;3.610;2023-03-01T08:58:49;2.50;99.90
30097;DHT22;16915;51.466;3.610;2023-03-01T09:01:16;2.70;99.90
30097;DHT22;16915;51.466;3.610;2023-03-01T09:03:43;2.80;99.90
30097;DHT22;16915;51.466;3.610;2023-03-01T09:06:09;2.90;99.90
30097;DHT22;16915;51.466;3.610;2023-03-01T09:08:39;3.00;99.90
30097;DHT22;16915;51.466;3.610;2023-03-01T09:11:06;3.10;99.90
30097;DHT22;16915;51.466;3.610;2023-03-01T09:13:32;3.20;99.90
30097;DHT22;16915;51.466;3.610;2023-03-01T09:15:59;3.30;99.90
30097;DHT22;16915;51.466;3.610;2023-03-01T09:18:25;3.40;99.90
30097;DHT22;16915;51.466;3.610;2023-03-01T09:20:51;3.60;99.90
30097;DHT22;16915;51.466;3.610;2023-03-01T09:23:16;3.60;99.90
30097;DHT22;16915;51.466;3.610;2023-03-01T09:25:42;3.80;99.90
30097;DHT22;16915;51.466;3.610;2023-03-01T09:28:07;3.90;99.90
30097;DHT22;16915;51.466;3.610;2023-03-01T09:30:33;3.90;99.90
30097;DHT22;16915;51.466;3.610;2023-03-01T09:32:58;4.00;99.90
30097;DHT22;16915;51.466;3.610;2023-03-01T09:35:24;4.10;99.90
30097;DHT22;16915;51.466;3.610;2023-03-01T09:37:50;4.20;99.90
30097;DHT22;16915;51.466;3.610;2023-03-01T09:40:20;4.40;99.90
30097;DHT22;16915;51.466;3.610;2023-03-01T09:45:32;4.60;99.90
30097;DHT22;16915;51.466;3.610;2023-03-01T09:48:00;4.70;99.90
30097;DHT22;16915;51.466;3.610;2023-03-01T09:50:31;4.80;99.90
30097;DHT22;16915;51.466;3.610;2023-03-01T09:53:03;5.00;99.90
30097;DHT22;16915;51.466;3.610;2023-03-01T10:00:56;5.60;99.90
30097;DHT22;16915;51.466;3.610;2023-03-01T10:03:36;5.80;99.90
30097;DHT22;16915;51.466;3.610;2023-03-01T10:06:06;6.00;99.90
30097;DHT22;16915;51.466;3.610;2023-03-01T10:09:03;6.20;99.90
30097;DHT22;16915;51.466;3.610;2023-03-01T10:11:35;6.30;99.90
30097;DHT22;16915;51.466;3.610;2023-03-01T10:16:59;6.90;99.90
30097;DHT22;16915;51.466;3.610;2023-03-01T10:19:46;7.30;99.90
30097;DHT22;16915;51.466;3.610;2023-03-01T10:22:16;7.50;99.90
30097;DHT22;16915;51.466;3.610;2023-03-01T10:24:43;7.70;99.90
30097;DHT22;16915;51.466;3.610;2023-03-01T10:29:55;8.20;99.90
30097;DHT22;16915;51.466;3.610;2023-03-01T10:32:23;8.40;99.90
30097;DHT22;16915;51.466;3.610;2023-03-01T10:34:48;8.50;99.90
30097;DHT22;16915;51.466;3.610;2023-03-01T10:37:20;8.50;99.90
30097;DHT22;16915;51.466;3.610;2023-03-01T10:42:36;8.80;99.90
30097;DHT22;16915;51.466;3.610;2023-03-01T10:48:11;9.40;99.90
30097;DHT22;16915;51.466;3.610;2023-03-01T10:50:42;9.60;99.90
30097;DHT22;16915;51.466;3.610;2023-03-01T10:53:27;9.70;99.90
30097;DHT22;16915;51.466;3.610;2023-03-01T10:56:13;10.00;99.90
30097;DHT22;16915;51.466;3.610;2023-03-01T10:58:41;10.10;99.40
30097;DHT22;16915;51.466;3.610;2023-03-01T11:06:32;10.50;99.60
30097;DHT22;16915;51.466;3.610;2023-03-01T11:09:20;10.60;99.30
30097;DHT22;16915;51.466;3.610;2023-03-01T11:11:51;10.70;98.30
30097;DHT22;16915;51.466;3.610;2023-03-01T11:16:49;10.90;97.00
30097;DHT22;16915;51.466;3.610;2023-03-01T11:19:23;11.00;97.30
30097;DHT22;16915;51.466;3.610;2023-03-01T11:22:03;10.90;96.70
30097;DHT22;16915;51.466;3.610;2023-03-01T11:24:52;11.00;96.70
30097;DHT22;16915;51.466;3.610;2023-03-01T11:27:31;11.00;96.70
30097;DHT22;16915;51.466;3.610;2023-03-01T11:30:05;11.10;96.80
30097;DHT22;16915;51.466;3.610;2023-03-01T11:32:40;11.00;96.80
30097;DHT22;16915;51.466;3.610;2023-03-01T11:37:48;11.70;96.10
30097;DHT22;16915;51.466;3.610;2023-03-01T11:40:47;12.10;95.10
30097;DHT22;16915;51.466;3.610;2023-03-01T11:43:25;11.90;95.60
30097;DHT22;16915;51.466;3.610;2023-03-01T11:51:32;12.30;94.10
30097;DHT22;16915;51.466;3.610;2023-03-01T11:56:35;12.20;93.50
30097;DHT22;16915;51.466;3.610;2023-03-01T11:59:30;12.20;93.80
30097;DHT22;16915;51.466;3.610;2023-03-01T12:13:01;13.00;90.00
30097;DHT22;16915;51.466;3.610;2023-03-01T12:21:12;13.90;89.20
30097;DHT22;16915;51.466;3.610;2023-03-01T12:26:35;14.00;88.30
30097;DHT22;16915;51.466;3.610;2023-03-01T12:32:16;14.50;85.80
30097;DHT22;16915;51.466;3.610;2023-03-01T12:43:10;14.00;83.60
30097;DHT22;16915;51.466;3.610;2023-03-01T12:45:47;14.00;85.60
30097;DHT22;16915;51.466;3.610;2023-03-01T12:48:36;13.60;87.60
30097;DHT22;16915;51.466;3.610;2023-03-01T12:51:10;13.90;85.00
30097;DHT22;16915;51.466;3.610;2023-03-01T12:53:42;14.30;85.00
30097;DHT22;16915;51.466;3.610;2023-03-01T12:56:12;14.50;81.60
30097;DHT22;16915;51.466;3.610;2023-03-01T12:58:59;14.20;83.00
30097;DHT22;16915;51.466;3.610;2023-03-01T13:01:39;14.00;81.40
30097;DHT22;16915;51.466;3.610;2023-03-01T13:09:51;14.90;82.40
30097;DHT22;16915;51.466;3.610;2023-03-01T13:17:53;14.40;80.50
30097;DHT22;16915;51.466;3.610;2023-03-01T13:20:23;14.70;81.50
30097;DHT22;16915;51.466;3.610;2023-03-01T13:23:04;15.00;80.80
30097;DHT22;16915;51.466;3.610;2023-03-01T13:25:31;15.40;80.40
30097;DHT22;16915;51.466;3.610;2023-03-01T13:31:07;14.80;78.20
30097;DHT22;16915;51.466;3.610;2023-03-01T13:36:07;14.60;79.50
30097;DHT22;16915;51.466;3.610;2023-03-01T13:38:56;14.70;80.50
30097;DHT22;16915;51.466;3.610;2023-03-01T13:49:58;15.80;77.00
30097;DHT22;16915;51.466;3.610;2023-03-01T13:57:41;15.00;79.50
30097;DHT22;16915;51.466;3.610;2023-03-01T14:00:24;14.50;79.50
30097;DHT22;16915;51.466;3.610;2023-03-01T14:03:03;14.00;79.70
30097;DHT22;16915;51.466;3.610;2023-03-01T14:05:30;12.70;82.40
30097;DHT22;16915;51.466;3.610;2023-03-01T14:07:56;11.60;85.60
30097;DHT22;16915;51.466;3.610;2023-03-01T14:10:21;10.60;88.30
30097;DHT22;16915;51.466;3.610;2023-03-01T14:12:51;9.50;91.80
30097;DHT22;16915;51.466;3.610;2023-03-01T14:15:39;8.80;92.80
30097;DHT22;16915;51.466;3.610;2023-03-01T14:20:46;7.90;96.70
30097;DHT22;16915;51.466;3.610;2023-03-01T14:23:19;7.70;98.10
30097;DHT22;16915;51.466;3.610;2023-03-01T14:25:53;7.50;98.60
30097;DHT22;16915;51.466;3.610;2023-03-01T14:28:26;7.30;99.50
30097;DHT22;16915;51.466;3.610;2023-03-01T14:30:55;7.30;99.90
30097;DHT22;16915;51.466;3.610;2023-03-01T14:38:34;7.20;99.90
30097;DHT22;16915;51.466;3.610;2023-03-01T14:41:13;7.10;99.90
30097;DHT22;16915;51.466;3.610;2023-03-01T14:43:44;7.20;99.90
30097;DHT22;16915;51.466;3.610;2023-03-01T14:46:40;7.10;99.90
30097;DHT22;16915;51.466;3.610;2023-03-01T14:49:09;7.00;99.90
30097;DHT22;16915;51.466;3.610;2023-03-01T14:51:37;7.00;99.90
30097;DHT22;16915;51.466;3.610;2023-03-01T14:54:10;7.00;99.90
30097;DHT22;16915;51.466;3.610;2023-03-01T14:56:46;7.00;99.90
30097;DHT22;16915;51.466;3.610;2023-03-01T14:59:12;7.00;99.90
30097;DHT22;16915;51.466;3.610;2023-03-01T15:01:40;6.90;99.90
30097;DHT22;16915;51.466;3.610;2023-03-01T15:04:08;6.90;99.90
30097;DHT22;16915;51.466;3.610;2023-03-01T15:06:36;6.90;99.90
30097;DHT22;16915;51.466;3.610;2023-03-01T15:09:03;6.90;99.90
30097;DHT22;16915;51.466;3.610;2023-03-01T15:11:30;6.80;99.90
30097;DHT22;16915;51.466;3.610;2023-03-01T15:13:56;6.80;99.90
30097;DHT22;16915;51.466;3.610;2023-03-01T15:16:30;6.80;99.90
30097;DHT22;16915;51.466;3.610;2023-03-01T15:19:04;6.80;99.90
30097;DHT22;16915;51.466;3.610;2023-03-01T15:21:36;6.80;99.90
30097;DHT22;16915;51.466;3.610;2023-03-01T15:24:16;6.70;99.90
30097;DHT22;16915;51.466;3.610;2023-03-01T15:26:50;6.70;99.90
30097;DHT22;16915;51.466;3.610;2023-03-01T15:29:21;6.70;99.90
30097;DHT22;16915;51.466;3.610;2023-03-01T15:31:56;6.70;99.90
30097;DHT22;16915;51.466;3.610;2023-03-01T15:36:48;6.80;99.90
30097;DHT22;16915;51.466;3.610;2023-03-01T15:39:35;6.70;99.90
30097;DHT22;16915;51.466;3.610;2023-03-01T15:42:05;6.70;99.90
30097;DHT22;16915;51.466;3.610;2023-03-01T15:44:33;6.70;99.90
30097;DHT22;16915;51.466;3.610;2023-03-01T15:47:00;6.70;99.90
30097;DHT22;16915;51.466;3.610;2023-03-01T15:49:40;6.60;99.90
30097;DHT22;16915;51.466;3.610;2023-03-01T15:52:15;6.60;99.90
30097;DHT22;16915;51.466;3.610;2023-03-01T15:54:44;6.60;99.90
30097;DHT22;16915;51.466;3.610;2023-03-01T15:57:14;6.50;99.90
30097;DHT22;16915;51.466;3.610;2023-03-01T15:59:41;6.50;99.90
30097;DHT22;16915;51.466;3.610;2023-03-01T16:02:11;6.50;99.90
30097;DHT22;16915;51.466;3.610;2023-03-01T16:04:40;6.50;99.90
30097;DHT22;16915;51.466;3.610;2023-03-01T16:07:06;6.50;99.90
30097;DHT22;16915;51.466;3.610;2023-03-01T16:09:31;6.40;99.90
30097;DHT22;16915;51.466;3.610;2023-03-01T16:11:58;6.30;99.90
30097;DHT22;16915;51.466;3.610;2023-03-01T16:14:23;6.40;99.90
30097;DHT22;16915;51.466;3.610;2023-03-01T16:16:49;6.40;99.90
30097;DHT22;16915;51.466;3.610;2023-03-01T16:19:15;6.30;99.90
30097;DHT22;16915;51.466;3.610;2023-03-01T16:21:42;6.30;99.90
30097;DHT22;16915;51.466;3.610;2023-03-01T16:24:09;6.40;99.90
30097;DHT22;16915;51.466;3.610;2023-03-01T16:26:36;6.30;99.90
30097;DHT22;16915;51.466;3.610;2023-03-01T16:29:02;6.30;99.90
30097;DHT22;16915;51.466;3.610;2023-03-01T16:31:28;6.20;99.90
30097;DHT22;16915;51.466;3.610;2023-03-01T16:33:58;6.20;99.90
30097;DHT22;16915;51.466;3.610;2023-03-01T16:36:26;6.20;99.90
30097;DHT22;16915;51.466;3.610;2023-03-01T16:38:54;6.10;99.90
30097;DHT22;16915;51.466;3.610;2023-03-01T16:41:21;6.10;99.90
30097;DHT22;16915;51.466;3.610;2023-03-01T16:43:48;6.10;99.90
30097;DHT22;16915;51.466;3.610;2023-03-01T16:46:22;6.00;99.90
30097;DHT22;16915;51.466;3.610;2023-03-01T16:48:49;6.00;99.90
30097;DHT22;16915;51.466;3.610;2023-03-01T16:51:15;6.00;99.90
30097;DHT22;16915;51.466;3.610;2023-03-01T16:53:41;5.90;99.90
30097;DHT22;16915;51.466;3.610;2023-03-01T16:56:09;5.90;99.90
30097;DHT22;16915;51.466;3.610;2023-03-01T16:58:35;5.70;99.90
30097;DHT22;16915;51.466;3.610;2023-03-01T17:01:13;5.70;99.90
30097;DHT22;16915;51.466;3.610;2023-03-01T17:03:39;5.60;99.90
30097;DHT22;16915;51.466;3.610;2023-03-01T17:06:07;5.60;99.90
30097;DHT22;16915;51.466;3.610;2023-03-01T17:08:34;5.60;99.90
30097;DHT22;16915;51.466;3.610;2023-03-01T17:11:06;5.50;99.90
30097;DHT22;16915;51.466;3.610;2023-03-01T17:13:32;5.50;99.90
30097;DHT22;16915;51.466;3.610;2023-03-01T17:15:59;5.40;99.90
30097;DHT22;16915;51.466;3.610;2023-03-01T17:18:25;5.30;99.90
30097;DHT22;16915;51.466;3.610;2023-03-01T17:20:50;5.20;99.90
30097;DHT22;16915;51.466;3.610;2023-03-01T17:23:16;5.10;99.90
30097;DHT22;16915;51.466;3.610;2023-03-01T17:25:43;5.00;99.90
30097;DHT22;16915;51.466;3.610;2023-03-01T17:28:10;4.90;99.90
30097;DHT22;16915;51.466;3.610;2023-03-01T17:30:36;4.90;99.90
30097;DHT22;16915;51.466;3.610;2023-03-01T17:33:02;4.80;99.90
30097;DHT22;16915;51.466;3.610;2023-03-01T17:35:28;4.70;99.90
30097;DHT22;16915;51.466;3.610;2023-03-01T17:37:53;4.60;99.90
30097;DHT22;16915;51.466;3.610;2023-03-01T17:40:19;4.50;99.90
30097;DHT22;16915;51.466;3.610;2023-03-01T17:42:46;4.40;99.90
30097;DHT22;16915;51.466;3.610;2023-03-01T17:45:11;4.30;99.90
30097;DHT22;16915;51.466;3.610;2023-03-01T17:47:37;4.20;99.90